createdAt,value
2017-12-11T00:00:00.336Z,3.96
2017-12-11T00:01:00.320Z,3.68
2017-12-11T00:02:00.319Z,4.58
2017-12-11T00:03:00.307Z,3.92
2017-12-11T00:04:00.298Z,3.12
2017-12-11T00:05:00.288Z,2.71
2017-12-11T00:06:00.272Z,3.11
2017-12-11T00:07:00.265Z,3.25
2017-12-11T00:08:00.252Z,2.78
2017-12-11T00:09:00.267Z,3.17
2017-12-11T00:10:00.242Z,3.33
2017-12-11T00:11:00.230Z,3.66
2017-12-11T00:12:00.222Z,3.78
2017-12-11T00:13:00.209Z,3.59
2017-12-11T00:14:00.198Z,3.29
2017-12-11T00:15:00.188Z,3.43
2017-12-11T00:16:00.179Z,4.06
2017-12-11T00:17:00.164Z,2.99
2017-12-11T00:18:00.176Z,3.26
2017-12-11T00:19:00.153Z,4.00
2017-12-11T00:20:00.142Z,4.39
2017-12-11T00:21:00.135Z,4.45
2017-12-11T00:22:00.126Z,3.60
2017-12-11T00:23:00.119Z,3.71
2017-12-11T00:24:00.108Z,3.67
2017-12-11T00:25:00.097Z,3.61
2017-12-11T00:26:00.087Z,3.07
2017-12-11T00:27:00.079Z,4.03
2017-12-11T00:28:00.065Z,3.47
2017-12-11T00:29:00.066Z,2.89
2017-12-11T00:30:00.046Z,3.04
2017-12-11T00:31:00.033Z,3.34
2017-12-11T00:32:00.024Z,4.87
2017-12-11T00:33:00.016Z,3.83
2017-12-11T00:34:00.009Z,3.38
2017-12-11T00:34:59.999Z,4.77
2017-12-11T00:35:59.987Z,4.68
2017-12-11T00:36:59.995Z,4.59
2017-12-11T00:37:59.969Z,3.47
2017-12-11T00:38:59.968Z,4.44
2017-12-11T00:39:59.954Z,4.47
2017-12-11T00:40:59.942Z,3.63
2017-12-11T00:41:59.930Z,3.64
2017-12-11T00:42:59.919Z,4.54
2017-12-11T00:43:59.918Z,4.04
2017-12-11T00:44:59.899Z,4.31
2017-12-11T00:45:59.892Z,4.99
2017-12-11T00:46:59.879Z,4.84
2017-12-11T00:47:59.873Z,4.74
2017-12-11T00:48:59.864Z,4.77
2017-12-11T00:49:59.849Z,4.50
2017-12-11T00:50:59.837Z,3.88
2017-12-11T00:51:59.830Z,4.26
2017-12-11T00:52:59.820Z,5.61
2017-12-11T00:53:59.816Z,4.30
2017-12-11T00:54:59.809Z,3.16
2017-12-11T00:55:59.816Z,5.03
2017-12-11T00:56:59.790Z,4.20
2017-12-11T00:57:59.782Z,3.86
2017-12-11T00:58:59.781Z,3.43
2017-12-11T00:59:59.751Z,5.86
2017-12-11T01:00:59.750Z,4.66
2017-12-11T01:01:59.726Z,5.97
2017-12-11T01:02:59.729Z,4.60
2017-12-11T01:03:59.720Z,3.45
2017-12-11T01:04:59.702Z,3.60
2017-12-11T01:05:11.741Z,0.11
2017-12-11T01:06:59.683Z,3.18
2017-12-11T01:07:59.670Z,3.36
2017-12-11T01:08:59.668Z,3.85
2017-12-11T01:09:59.665Z,3.46
2017-12-11T01:10:59.650Z,3.18
2017-12-11T01:11:59.643Z,4.63
2017-12-11T01:12:59.622Z,4.11
2017-12-11T01:13:59.620Z,3.89
2017-12-11T01:14:59.609Z,3.87
2017-12-11T01:15:59.600Z,3.06
2017-12-11T01:16:59.597Z,3.66
2017-12-11T01:17:59.589Z,4.98
2017-12-11T01:18:59.577Z,4.24
2017-12-11T01:19:59.568Z,4.32
2017-12-11T01:20:59.564Z,2.66
2017-12-11T01:21:59.545Z,3.71
2017-12-11T01:22:59.543Z,4.52
2017-12-11T01:23:59.519Z,5.28
2017-12-11T01:24:59.520Z,3.43
2017-12-11T01:25:59.504Z,3.37
2017-12-11T01:26:59.487Z,4.43
2017-12-11T01:27:59.486Z,4.04
2017-12-11T01:28:59.473Z,4.58
2017-12-11T01:29:59.472Z,2.19
2017-12-11T01:30:59.454Z,2.66
2017-12-11T01:31:59.447Z,3.01
2017-12-11T01:32:59.448Z,4.36
2017-12-11T01:33:59.442Z,4.41
2017-12-11T01:34:59.423Z,3.28
2017-12-11T01:35:59.427Z,3.35
2017-12-11T01:36:59.411Z,2.91
2017-12-11T01:37:59.395Z,3.49
2017-12-11T01:38:59.373Z,6.12
2017-12-11T01:39:59.375Z,3.94
2017-12-11T01:40:59.357Z,3.03
2017-12-11T01:41:59.347Z,2.20
2017-12-11T01:42:59.354Z,3.26
2017-12-11T01:43:59.328Z,2.79
2017-12-11T01:44:59.317Z,3.04
2017-12-11T01:45:59.313Z,2.72
2017-12-11T01:46:59.296Z,2.70
2017-12-11T01:47:59.294Z,3.07
2017-12-11T01:48:59.300Z,3.24
2017-12-11T01:49:59.281Z,2.34
2017-12-11T01:50:59.277Z,3.35
2017-12-11T01:51:59.253Z,5.72
2017-12-11T01:52:59.266Z,6.07
2017-12-11T01:53:59.247Z,6.14
2017-12-11T01:54:59.229Z,5.39
2017-12-11T01:55:59.217Z,4.98
2017-12-11T01:56:59.200Z,4.02
2017-12-11T01:57:59.217Z,4.27
2017-12-11T01:58:59.189Z,5.34
2017-12-11T01:59:59.172Z,5.39
2017-12-11T02:00:59.169Z,5.03
2017-12-11T02:01:59.158Z,4.77
2017-12-11T02:02:59.148Z,3.75
2017-12-11T02:03:59.131Z,4.30
2017-12-11T02:04:59.150Z,4.19
2017-12-11T02:05:59.127Z,4.20
2017-12-11T02:06:59.111Z,4.04
2017-12-11T02:07:59.100Z,4.72
2017-12-11T02:08:59.096Z,5.42
2017-12-11T02:09:59.083Z,4.05
2017-12-11T02:10:59.068Z,3.13
2017-12-11T02:11:59.067Z,4.04
2017-12-11T02:12:59.053Z,4.46
2017-12-11T02:13:59.061Z,4.79
2017-12-11T02:14:59.047Z,4.64
2017-12-11T02:15:59.081Z,3.74
2017-12-11T02:16:59.016Z,3.30
2017-12-11T02:17:58.999Z,3.76
2017-12-11T02:18:58.997Z,3.58
2017-12-11T02:19:58.989Z,4.49
2017-12-11T02:20:58.977Z,4.78
2017-12-11T02:21:58.956Z,3.24
2017-12-11T02:22:58.947Z,3.67
2017-12-11T02:23:58.946Z,3.90
2017-12-11T02:24:58.942Z,3.18
2017-12-11T02:25:58.927Z,4.07
2017-12-11T02:26:58.913Z,4.29
2017-12-11T02:27:58.901Z,3.33
2017-12-11T02:28:58.896Z,6.48
2017-12-11T02:29:58.896Z,4.24
2017-12-11T02:30:58.887Z,5.77
2017-12-11T02:31:58.869Z,3.74
2017-12-11T02:32:58.857Z,4.97
2017-12-11T02:33:58.846Z,4.48
2017-12-11T02:34:58.837Z,4.40
2017-12-11T02:35:58.839Z,5.53
2017-12-11T02:36:58.822Z,4.12
2017-12-11T02:37:58.800Z,4.11
2017-12-11T02:38:58.799Z,4.75
2017-12-11T02:39:58.791Z,3.88
2017-12-11T02:40:58.780Z,5.44
2017-12-11T02:41:58.763Z,5.72
2017-12-11T02:42:58.758Z,7.14
2017-12-11T02:43:58.757Z,4.69
2017-12-11T02:44:58.741Z,4.06
2017-12-11T02:45:58.732Z,5.12
2017-12-11T02:46:58.722Z,5.93
2017-12-11T02:47:58.719Z,4.55
2017-12-11T02:48:58.702Z,6.18
2017-12-11T02:49:58.700Z,7.09
2017-12-11T02:50:58.686Z,11.84
2017-12-11T02:51:58.681Z,13.80
2017-12-11T02:52:58.667Z,9.58
2017-12-11T02:53:58.664Z,9.80
2017-12-11T02:54:58.650Z,8.62
2017-12-11T02:55:58.649Z,9.93
2017-12-11T02:56:58.629Z,8.58
2017-12-11T02:57:58.616Z,8.78
2017-12-11T02:58:58.607Z,9.14
2017-12-11T02:59:58.612Z,6.87
2017-12-11T03:00:58.603Z,8.11
2017-12-11T03:01:58.581Z,7.06
2017-12-11T03:02:58.584Z,9.02
2017-12-11T03:03:58.563Z,8.36
2017-12-11T03:04:58.562Z,9.16
2017-12-11T03:05:58.539Z,6.36
2017-12-11T03:06:58.547Z,8.36
2017-12-11T03:07:58.522Z,7.97
2017-12-11T03:08:58.519Z,7.87
2017-12-11T03:09:58.493Z,6.92
2017-12-11T03:10:58.502Z,8.63
2017-12-11T03:11:58.488Z,7.24
2017-12-11T03:12:58.491Z,7.14
2017-12-11T03:13:58.469Z,8.12
2017-12-11T03:14:58.449Z,7.79
2017-12-11T03:15:58.447Z,7.49
2017-12-11T03:16:58.437Z,6.44
2017-12-11T03:17:58.429Z,8.50
2017-12-11T03:18:58.430Z,6.97
2017-12-11T03:19:58.410Z,7.62
2017-12-11T03:20:58.394Z,7.54
2017-12-11T03:21:58.395Z,9.27
2017-12-11T03:22:58.373Z,10.14
2017-12-11T03:23:58.364Z,9.75
2017-12-11T03:24:58.357Z,8.10
2017-12-11T03:25:58.346Z,8.40
2017-12-11T03:26:58.341Z,8.60
2017-12-11T03:27:58.324Z,8.40
2017-12-11T03:28:58.329Z,9.23
2017-12-11T03:29:58.310Z,12.88
2017-12-11T03:30:58.304Z,10.18
2017-12-11T03:31:58.300Z,9.52
2017-12-11T03:32:58.282Z,9.98
2017-12-11T03:33:58.268Z,9.00
2017-12-11T03:34:58.263Z,9.11
2017-12-11T03:35:58.255Z,8.00
2017-12-11T03:36:58.239Z,8.81
2017-12-11T03:37:58.233Z,7.66
2017-12-11T03:38:58.221Z,8.71
2017-12-11T03:39:58.217Z,7.48
2017-12-11T03:40:58.213Z,7.68
2017-12-11T03:41:58.190Z,6.07
2017-12-11T03:42:58.183Z,8.25
2017-12-11T03:43:58.177Z,7.69
2017-12-11T03:44:58.163Z,9.50
2017-12-11T03:45:58.160Z,8.76
2017-12-11T03:46:58.138Z,8.70
2017-12-11T03:47:58.132Z,8.21
2017-12-11T03:48:58.121Z,7.61
2017-12-11T03:49:58.108Z,6.90
2017-12-11T03:50:58.127Z,8.86
2017-12-11T03:51:58.105Z,8.26
2017-12-11T03:52:58.075Z,9.88
2017-12-11T03:53:58.076Z,9.80
2017-12-11T03:54:58.060Z,9.72
2017-12-11T03:55:59.450Z,9.51
2017-12-11T03:56:58.039Z,7.56
2017-12-11T03:57:58.034Z,8.33
2017-12-11T03:58:58.017Z,9.26
2017-12-11T03:59:58.015Z,7.23
2017-12-11T04:00:57.996Z,8.87
2017-12-11T04:01:58.003Z,9.04
2017-12-11T04:02:57.978Z,8.78
2017-12-11T04:03:57.972Z,8.94
2017-12-11T04:04:57.989Z,9.60
2017-12-11T04:05:57.953Z,9.20
2017-12-11T04:06:57.947Z,7.83
2017-12-11T04:07:57.944Z,9.46
2017-12-11T04:08:57.913Z,8.90
2017-12-11T04:09:57.932Z,8.84
2017-12-11T04:10:57.914Z,7.71
2017-12-11T04:11:57.885Z,7.00
2017-12-11T04:12:57.884Z,8.31
2017-12-11T04:13:57.875Z,8.88
2017-12-11T04:14:57.861Z,8.39
2017-12-11T04:15:57.869Z,8.61
2017-12-11T04:16:57.846Z,10.33
2017-12-11T04:17:57.826Z,9.32
2017-12-11T04:18:57.825Z,10.02
2017-12-11T04:19:57.816Z,11.75
2017-12-11T04:20:57.803Z,9.18
2017-12-11T04:21:57.798Z,8.29
2017-12-11T04:22:57.783Z,10.55
2017-12-11T04:23:57.786Z,9.75
2017-12-11T04:24:57.768Z,11.13
2017-12-11T04:25:57.752Z,10.14
2017-12-11T04:26:57.747Z,12.18
2017-12-11T04:27:57.725Z,11.18
2017-12-11T04:28:57.736Z,11.15
2017-12-11T04:29:57.717Z,10.03
2017-12-11T04:30:57.710Z,11.04
2017-12-11T04:31:57.684Z,9.38
2017-12-11T04:32:57.705Z,9.30
2017-12-11T04:33:57.669Z,10.54
2017-12-11T04:34:57.663Z,10.73
2017-12-11T04:35:57.650Z,11.58
2017-12-11T04:36:57.637Z,11.89
2017-12-11T04:37:57.633Z,12.08
2017-12-11T04:38:57.621Z,10.48
2017-12-11T04:39:57.606Z,10.18
2017-12-11T04:40:57.597Z,12.17
2017-12-11T04:41:57.581Z,11.82
2017-12-11T04:42:57.572Z,11.06
2017-12-11T04:43:57.566Z,11.70
2017-12-11T04:44:57.560Z,9.93
2017-12-11T04:45:57.543Z,14.09
2017-12-11T04:46:57.547Z,11.45
2017-12-11T04:47:57.537Z,12.72
2017-12-11T04:48:57.519Z,12.26
2017-12-11T04:49:57.508Z,11.70
2017-12-11T04:50:57.497Z,12.38
2017-12-11T04:51:57.484Z,12.31
2017-12-11T04:52:57.476Z,10.58
2017-12-11T04:53:57.458Z,10.92
2017-12-11T04:54:57.448Z,13.73
2017-12-11T04:55:57.446Z,11.51
2017-12-11T04:56:57.442Z,14.09
2017-12-11T04:57:57.428Z,12.41
2017-12-11T04:58:57.420Z,14.28
2017-12-11T04:59:57.406Z,11.29
2017-12-11T05:00:57.399Z,10.72
2017-12-11T05:01:57.396Z,12.08
2017-12-11T05:02:57.379Z,13.20
2017-12-11T05:03:57.365Z,16.46
2017-12-11T05:04:57.350Z,12.76
2017-12-11T05:05:57.353Z,11.29
2017-12-11T05:06:57.333Z,12.26
2017-12-11T05:07:57.325Z,12.92
2017-12-11T05:08:57.305Z,15.63
2017-12-11T05:09:57.306Z,14.24
2017-12-11T05:10:57.298Z,14.43
2017-12-11T05:11:57.290Z,16.47
2017-12-11T05:12:57.267Z,13.42
2017-12-11T05:13:57.277Z,12.80
2017-12-11T05:14:57.247Z,13.13
2017-12-11T05:15:57.244Z,15.10
2017-12-11T05:16:57.228Z,12.47
2017-12-11T05:17:57.228Z,13.03
2017-12-11T05:18:57.225Z,14.44
2017-12-11T05:19:57.221Z,14.02
2017-12-11T05:20:57.195Z,14.23
2017-12-11T05:21:57.179Z,12.76
2017-12-11T05:22:57.173Z,11.57
2017-12-11T05:23:57.162Z,12.79
2017-12-11T05:24:57.183Z,13.94
2017-12-11T05:25:57.148Z,12.73
2017-12-11T05:26:57.133Z,13.15
2017-12-11T05:27:57.117Z,13.60
2017-12-11T05:28:57.112Z,13.16
2017-12-11T05:29:57.110Z,12.73
2017-12-11T05:30:57.100Z,13.37
2017-12-11T05:31:57.134Z,12.74
2017-12-11T05:32:57.073Z,13.16
2017-12-11T05:33:57.054Z,13.54
2017-12-11T05:34:57.052Z,13.80
2017-12-11T05:35:57.035Z,13.65
2017-12-11T05:36:57.030Z,13.16
2017-12-11T05:37:57.019Z,12.73
2017-12-11T05:38:57.017Z,12.39
2017-12-11T05:39:57.002Z,11.80
2017-12-11T05:40:56.994Z,14.58
2017-12-11T05:41:56.976Z,12.98
2017-12-11T05:42:56.976Z,12.92
2017-12-11T05:43:56.981Z,11.45
2017-12-11T05:44:56.954Z,12.75
2017-12-11T05:45:56.945Z,15.58
2017-12-11T05:46:56.946Z,12.15
2017-12-11T05:47:56.920Z,13.01
2017-12-11T05:48:56.915Z,14.20
2017-12-11T05:49:56.889Z,12.64
2017-12-11T05:50:56.879Z,13.02
2017-12-11T05:51:56.879Z,12.46
2017-12-11T05:52:56.870Z,14.92
2017-12-11T05:53:56.854Z,12.46
2017-12-11T05:54:56.842Z,13.61
2017-12-11T05:55:56.836Z,12.71
2017-12-11T05:56:56.831Z,14.05
2017-12-11T05:57:56.815Z,13.02
2017-12-11T05:58:56.818Z,13.39
2017-12-11T05:59:56.810Z,13.78
2017-12-11T06:00:56.780Z,14.72
2017-12-11T06:01:56.775Z,15.72
2017-12-11T06:02:56.774Z,14.12
2017-12-11T06:03:56.762Z,14.23
2017-12-11T06:04:56.741Z,13.11
2017-12-11T06:05:56.734Z,13.02
2017-12-11T06:06:56.720Z,12.40
2017-12-11T06:07:56.709Z,13.79
2017-12-11T06:08:56.698Z,15.48
2017-12-11T06:09:56.687Z,16.82
2017-12-11T06:10:56.694Z,13.07
2017-12-11T06:11:56.669Z,14.64
2017-12-11T06:12:56.666Z,15.56
2017-12-11T06:13:56.663Z,13.98
2017-12-11T06:14:56.649Z,15.16
2017-12-11T06:15:56.631Z,13.70
2017-12-11T06:16:56.620Z,12.28
2017-12-11T06:17:56.612Z,13.72
2017-12-11T06:18:56.603Z,13.21
2017-12-11T06:19:56.597Z,13.77
2017-12-11T06:20:56.576Z,13.18
2017-12-11T06:21:56.577Z,13.25
2017-12-11T06:22:56.570Z,12.71
2017-12-11T06:23:56.542Z,15.57
2017-12-11T06:24:56.537Z,12.85
2017-12-11T06:25:56.519Z,11.82
2017-12-11T06:26:56.514Z,12.97
2017-12-11T06:27:56.817Z,12.55
2017-12-11T06:28:56.496Z,15.67
2017-12-11T06:29:56.484Z,12.53
2017-12-11T06:30:56.473Z,13.26
2017-12-11T06:31:56.464Z,13.84
2017-12-11T06:32:56.469Z,14.87
2017-12-11T06:33:56.460Z,15.50
2017-12-11T06:34:56.509Z,13.15
2017-12-11T06:35:56.423Z,12.98
2017-12-11T06:36:56.418Z,14.68
2017-12-11T06:37:56.409Z,12.48
2017-12-11T06:38:56.403Z,13.02
2017-12-11T06:39:56.389Z,12.02
2017-12-11T06:40:56.377Z,11.92
2017-12-11T06:41:56.364Z,12.72
2017-12-11T06:42:56.654Z,13.54
2017-12-11T06:43:56.348Z,12.20
2017-12-11T06:44:56.333Z,13.74
2017-12-11T06:45:56.327Z,13.26
2017-12-11T06:46:56.325Z,14.25
2017-12-11T06:47:56.299Z,14.30
2017-12-11T06:48:56.319Z,15.23
2017-12-11T06:49:56.272Z,15.11
2017-12-11T06:50:56.286Z,14.18
2017-12-11T06:51:08.272Z,0.55
2017-12-11T06:52:56.253Z,15.44
2017-12-11T06:53:56.245Z,16.46
2017-12-11T06:54:56.230Z,18.12
2017-12-11T06:55:56.242Z,15.57
2017-12-11T06:56:56.220Z,15.35
2017-12-11T06:57:56.207Z,17.28
2017-12-11T06:58:56.198Z,18.87
2017-12-11T06:59:56.185Z,15.42
2017-12-11T07:00:56.162Z,14.89
2017-12-11T07:01:56.160Z,17.30
2017-12-11T07:02:56.162Z,15.47
2017-12-11T07:03:56.136Z,15.04
2017-12-11T07:04:56.137Z,14.46
2017-12-11T07:05:56.128Z,16.22
2017-12-11T07:06:56.121Z,19.23
2017-12-11T07:07:56.101Z,13.89
2017-12-11T07:08:56.120Z,17.47
2017-12-11T07:09:56.083Z,15.46
2017-12-11T07:10:56.065Z,15.85
2017-12-11T07:11:56.061Z,16.23
2017-12-11T07:12:56.056Z,18.16
2017-12-11T07:13:56.046Z,12.45
2017-12-11T07:14:56.026Z,12.33
2017-12-11T07:15:56.026Z,12.98
2017-12-11T07:16:56.030Z,13.87
2017-12-11T07:17:56.000Z,14.59
2017-12-11T07:18:56.011Z,13.38
2017-12-11T07:19:55.986Z,13.81
2017-12-11T07:20:55.967Z,13.29
2017-12-11T07:21:55.952Z,15.87
2017-12-11T07:22:55.960Z,15.25
2017-12-11T07:23:55.937Z,12.89
2017-12-11T07:24:55.925Z,13.46
2017-12-11T07:25:55.924Z,13.20
2017-12-11T07:26:55.916Z,16.20
2017-12-11T07:27:55.896Z,14.25
2017-12-11T07:28:55.905Z,15.97
2017-12-11T07:29:55.878Z,13.94
2017-12-11T07:30:55.890Z,13.24
2017-12-11T07:31:55.866Z,12.95
2017-12-11T07:32:55.876Z,14.52
2017-12-11T07:33:55.840Z,14.92
2017-12-11T07:34:55.840Z,14.17
2017-12-11T07:35:55.829Z,13.24
2017-12-11T07:36:55.822Z,16.47
2017-12-11T07:37:55.851Z,18.13
2017-12-11T07:38:55.787Z,14.84
2017-12-11T07:39:55.787Z,16.34
2017-12-11T07:40:55.774Z,14.93
2017-12-11T07:41:55.767Z,17.25
2017-12-11T07:42:55.760Z,17.32
2017-12-11T07:43:07.748Z,0.77
2017-12-11T07:44:55.728Z,18.30
2017-12-11T07:45:55.731Z,18.38
2017-12-11T07:46:55.707Z,19.87
2017-12-11T07:47:55.699Z,20.24
2017-12-11T07:48:55.690Z,19.04
2017-12-11T07:49:55.692Z,17.65
2017-12-11T07:50:55.662Z,20.84
2017-12-11T07:51:55.667Z,17.44
2017-12-11T07:52:55.652Z,17.76
2017-12-11T07:53:55.658Z,18.48
2017-12-11T07:54:55.622Z,16.72
2017-12-11T07:55:55.648Z,26.03
2017-12-11T07:56:55.601Z,20.29
2017-12-11T07:57:55.610Z,18.46
2017-12-11T07:58:55.590Z,20.41
2017-12-11T07:59:55.573Z,19.06
2017-12-11T08:00:55.589Z,18.55
2017-12-11T08:01:55.559Z,20.59
2017-12-11T08:02:55.541Z,20.02
2017-12-11T08:03:55.544Z,16.36
2017-12-11T08:04:55.526Z,14.63
2017-12-11T08:05:55.518Z,18.25
2017-12-11T08:06:55.510Z,20.62
2017-12-11T08:07:55.496Z,19.42
2017-12-11T08:08:55.489Z,23.65
2017-12-11T08:09:55.472Z,20.48
2017-12-11T08:10:55.467Z,21.71
2017-12-11T08:11:55.470Z,20.62
2017-12-11T08:12:55.465Z,15.36
2017-12-11T08:13:55.436Z,20.69
2017-12-11T08:14:55.421Z,19.40
2017-12-11T08:15:55.420Z,20.01
2017-12-11T08:16:55.403Z,23.48
2017-12-11T08:17:55.400Z,22.35
2017-12-11T08:18:55.376Z,21.22
2017-12-11T08:19:55.378Z,22.27
2017-12-11T08:20:55.363Z,22.95
2017-12-11T08:21:55.367Z,22.60
2017-12-11T08:22:55.346Z,21.30
2017-12-11T08:23:55.336Z,21.75
2017-12-11T08:24:55.326Z,20.05
2017-12-11T08:25:55.322Z,20.27
2017-12-11T08:26:55.319Z,18.34
2017-12-11T08:27:55.289Z,22.46
2017-12-11T08:28:55.284Z,21.38
2017-12-11T08:29:55.275Z,19.78
2017-12-11T08:30:55.263Z,19.85
2017-12-11T08:31:55.254Z,18.51
2017-12-11T08:32:55.249Z,19.69
2017-12-11T08:33:55.232Z,21.60
2017-12-11T08:34:55.222Z,17.31
2017-12-11T08:35:55.212Z,16.70
2017-12-11T08:36:55.208Z,17.14
2017-12-11T08:37:55.193Z,19.45
2017-12-11T08:38:55.185Z,19.84
2017-12-11T08:39:55.175Z,15.07
2017-12-11T08:40:55.163Z,18.04
2017-12-11T08:41:55.153Z,16.19
2017-12-11T08:42:55.146Z,18.20
2017-12-11T08:43:55.140Z,14.81
2017-12-11T08:44:55.126Z,14.92
2017-12-11T08:45:55.108Z,14.56
2017-12-11T08:46:55.111Z,15.95
2017-12-11T08:47:55.093Z,17.64
2017-12-11T08:48:55.081Z,17.40
2017-12-11T08:49:55.073Z,17.15
2017-12-11T08:50:55.069Z,16.47
2017-12-11T08:51:55.067Z,18.01
2017-12-11T08:52:55.038Z,16.17
2017-12-11T08:53:55.025Z,19.69
2017-12-11T08:54:55.021Z,18.23
2017-12-11T08:55:55.061Z,21.28
2017-12-11T08:56:55.010Z,16.62
2017-12-11T08:57:54.991Z,18.94
2017-12-11T08:58:54.976Z,21.02
2017-12-11T08:59:54.979Z,22.72
2017-12-11T09:00:54.957Z,19.09
2017-12-11T09:01:54.952Z,19.36
2017-12-11T09:02:54.936Z,18.95
2017-12-11T09:03:54.929Z,17.81
2017-12-11T09:04:54.920Z,20.70
2017-12-11T09:05:54.905Z,16.74
2017-12-11T09:06:54.894Z,17.87
2017-12-11T09:07:54.895Z,20.43
2017-12-11T09:08:54.868Z,22.60
2017-12-11T09:09:54.853Z,22.37
2017-12-11T09:10:54.851Z,19.62
2017-12-11T09:11:54.835Z,23.95
2017-12-11T09:12:54.835Z,21.32
2017-12-11T09:13:54.825Z,19.36
2017-12-11T09:14:54.808Z,21.00
2017-12-11T09:15:54.797Z,25.80
2017-12-11T09:16:54.791Z,22.86
2017-12-11T09:17:54.805Z,24.13
2017-12-11T09:18:54.770Z,24.40
2017-12-11T09:19:54.763Z,25.82
2017-12-11T09:20:54.766Z,21.89
2017-12-11T09:21:54.739Z,22.52
2017-12-11T09:22:54.726Z,24.86
2017-12-11T09:23:54.762Z,26.20
2017-12-11T09:24:54.705Z,22.69
2017-12-11T09:25:54.696Z,20.34
2017-12-11T09:26:54.689Z,20.13
2017-12-11T09:27:54.683Z,20.43
2017-12-11T09:28:54.659Z,20.54
2017-12-11T09:29:54.654Z,19.23
2017-12-11T09:30:54.655Z,20.91
2017-12-11T09:31:54.628Z,20.50
2017-12-11T09:32:54.628Z,21.44
2017-12-11T09:33:54.615Z,17.41
2017-12-11T09:34:54.603Z,16.82
2017-12-11T09:35:54.593Z,19.47
2017-12-11T09:36:54.590Z,13.22
2017-12-11T09:37:54.571Z,16.15
2017-12-11T09:38:54.560Z,18.32
2017-12-11T09:39:54.556Z,17.37
2017-12-11T09:40:54.534Z,22.57
2017-12-11T09:41:54.531Z,20.77
2017-12-11T09:42:54.511Z,17.18
2017-12-11T09:43:54.507Z,16.75
2017-12-11T09:44:54.498Z,15.89
2017-12-11T09:45:54.487Z,19.42
2017-12-11T09:46:54.475Z,18.83
2017-12-11T09:47:54.464Z,18.93
2017-12-11T09:48:54.488Z,19.83
2017-12-11T09:49:54.446Z,13.75
2017-12-11T09:50:54.432Z,16.26
2017-12-11T09:51:54.430Z,15.52
2017-12-11T09:52:54.408Z,16.93
2017-12-11T09:53:54.395Z,16.20
2017-12-11T09:54:54.400Z,13.11
2017-12-11T09:55:54.389Z,13.48
2017-12-11T09:56:54.379Z,15.80
2017-12-11T09:57:54.377Z,10.40
2017-12-11T09:58:54.353Z,12.24
2017-12-11T09:59:54.343Z,12.82
2017-12-11T10:00:54.334Z,11.56
2017-12-11T10:01:54.323Z,13.56
2017-12-11T10:02:54.320Z,11.94
2017-12-11T10:03:54.310Z,13.62
2017-12-11T10:04:54.292Z,11.43
2017-12-11T10:05:54.291Z,11.82
2017-12-11T10:06:54.263Z,11.00
2017-12-11T10:07:54.261Z,9.56
2017-12-11T10:08:54.244Z,11.43
2017-12-11T10:09:54.234Z,10.21
2017-12-11T10:10:54.223Z,11.77
2017-12-11T10:11:54.213Z,12.18
2017-12-11T10:12:54.219Z,10.36
2017-12-11T10:13:54.197Z,11.63
2017-12-11T10:14:54.187Z,12.51
2017-12-11T10:15:54.183Z,11.54
2017-12-11T10:16:54.165Z,11.72
2017-12-11T10:17:54.162Z,9.85
2017-12-11T10:18:54.149Z,11.04
2017-12-11T10:19:54.138Z,7.36
2017-12-11T10:20:54.122Z,9.58
2017-12-11T10:21:54.108Z,8.81
2017-12-11T10:22:54.099Z,8.06
2017-12-11T10:23:54.094Z,8.66
2017-12-11T10:24:54.082Z,11.41
2017-12-11T10:25:54.070Z,11.98
2017-12-11T10:26:54.053Z,9.72
2017-12-11T10:27:54.053Z,7.92
2017-12-11T10:28:54.050Z,7.63
2017-12-11T10:29:54.035Z,11.05
2017-12-11T10:30:54.023Z,8.38
2017-12-11T10:31:54.015Z,10.30
2017-12-11T10:32:54.004Z,10.64
2017-12-11T10:33:53.995Z,10.40
2017-12-11T10:34:54.004Z,9.30
2017-12-11T10:35:53.974Z,10.54
2017-12-11T10:36:53.966Z,11.05
2017-12-11T10:37:53.953Z,8.85
2017-12-11T10:38:53.954Z,11.90
2017-12-11T10:39:53.932Z,11.97
2017-12-11T10:40:53.921Z,13.79
2017-12-11T10:41:53.911Z,12.10
2017-12-11T10:42:53.901Z,13.77
2017-12-11T10:43:53.894Z,14.58
2017-12-11T10:44:53.895Z,13.28
2017-12-11T10:45:53.876Z,12.18
2017-12-11T10:46:53.869Z,13.38
2017-12-11T10:47:53.854Z,12.39
2017-12-11T10:48:53.841Z,15.50
2017-12-11T10:49:53.835Z,12.16
2017-12-11T10:50:53.818Z,10.69
2017-12-11T10:51:53.809Z,11.30
2017-12-11T10:52:53.822Z,11.72
2017-12-11T10:53:53.796Z,11.75
2017-12-11T10:54:53.789Z,14.39
2017-12-11T10:55:53.788Z,15.84
2017-12-11T10:56:53.768Z,11.32
2017-12-11T10:57:53.777Z,11.40
2017-12-11T10:58:53.748Z,11.77
2017-12-11T10:59:53.756Z,12.66
2017-12-11T11:00:53.737Z,12.47
2017-12-11T11:01:53.720Z,12.86
2017-12-11T11:02:53.719Z,10.07
2017-12-11T11:03:53.692Z,10.98
2017-12-11T11:04:53.686Z,9.88
2017-12-11T11:05:53.680Z,9.79
2017-12-11T11:06:53.675Z,9.78
2017-12-11T11:07:53.657Z,8.56
2017-12-11T11:08:53.661Z,8.43
2017-12-11T11:09:53.641Z,9.06
2017-12-11T11:10:53.646Z,10.40
2017-12-11T11:11:53.666Z,10.36
2017-12-11T11:12:53.629Z,9.03
2017-12-11T11:13:53.615Z,8.08
2017-12-11T11:14:53.616Z,12.46
2017-12-11T11:15:53.594Z,11.95
2017-12-11T11:16:53.576Z,11.52
2017-12-11T11:17:53.564Z,12.60
2017-12-11T11:18:53.562Z,10.93
2017-12-11T11:19:53.559Z,9.47
2017-12-11T11:20:53.546Z,10.86
2017-12-11T11:21:53.536Z,8.26
2017-12-11T11:22:53.532Z,12.47
2017-12-11T11:23:53.520Z,10.79
2017-12-11T11:24:53.513Z,10.81
2017-12-11T11:25:53.501Z,11.69
2017-12-11T11:26:53.493Z,9.64
2017-12-11T11:27:53.491Z,8.29
2017-12-11T11:28:53.481Z,10.45
2017-12-11T11:29:53.466Z,10.32
2017-12-11T11:30:53.472Z,9.75
2017-12-11T11:31:53.449Z,8.28
2017-12-11T11:32:53.444Z,9.72
2017-12-11T11:33:53.430Z,8.69
2017-12-11T11:34:53.425Z,10.21
2017-12-11T11:35:53.410Z,8.16
2017-12-11T11:36:53.401Z,9.05
2017-12-11T11:37:53.416Z,8.46
2017-12-11T11:38:53.389Z,8.24
2017-12-11T11:39:53.375Z,10.62
2017-12-11T11:40:53.377Z,10.17
2017-12-11T11:41:53.365Z,8.73
2017-12-11T11:42:53.356Z,10.94
2017-12-11T11:43:53.343Z,9.48
2017-12-11T11:44:53.339Z,9.00
2017-12-11T11:45:53.337Z,7.74
2017-12-11T11:46:53.318Z,9.25
2017-12-11T11:47:53.305Z,9.35
2017-12-11T11:48:53.298Z,10.91
2017-12-11T11:49:53.291Z,9.81
2017-12-11T11:50:53.272Z,12.08
2017-12-11T11:51:53.264Z,10.88
2017-12-11T11:52:53.265Z,10.18
2017-12-11T11:53:53.256Z,9.56
2017-12-11T11:54:53.248Z,9.47
2017-12-11T11:55:53.235Z,10.28
2017-12-11T11:56:53.226Z,13.06
2017-12-11T11:57:53.268Z,12.74
2017-12-11T11:58:53.204Z,10.58
2017-12-11T11:59:53.203Z,10.21
2017-12-11T12:00:53.205Z,11.23
2017-12-11T12:01:53.185Z,15.05
2017-12-11T12:02:53.186Z,11.38
2017-12-11T12:03:53.193Z,9.84
2017-12-11T12:04:53.163Z,9.03
2017-12-11T12:05:53.152Z,9.95
2017-12-11T12:06:53.148Z,12.98
2017-12-11T12:07:53.137Z,13.08
2017-12-11T12:08:53.131Z,10.58
2017-12-11T12:09:53.121Z,9.11
2017-12-11T12:10:53.114Z,8.72
2017-12-11T12:11:53.109Z,8.35
2017-12-11T12:12:53.095Z,9.48
2017-12-11T12:13:53.083Z,9.08
2017-12-11T12:14:53.082Z,9.33
2017-12-11T12:15:53.063Z,9.95
2017-12-11T12:16:53.061Z,10.00
2017-12-11T12:17:53.045Z,9.88
2017-12-11T12:18:53.037Z,11.24
2017-12-11T12:19:53.032Z,11.76
2017-12-11T12:20:53.031Z,9.66
2017-12-11T12:21:53.027Z,8.00
2017-12-11T12:22:53.012Z,14.38
2017-12-11T12:23:53.006Z,9.29
2017-12-11T12:24:52.994Z,8.53
2017-12-11T12:25:52.976Z,9.19
2017-12-11T12:26:52.984Z,9.27
2017-12-11T12:27:52.963Z,8.75
2017-12-11T12:28:52.951Z,5.72
2017-12-11T12:29:52.950Z,6.36
2017-12-11T12:30:52.938Z,5.14
2017-12-11T12:31:52.925Z,6.04
2017-12-11T12:32:52.919Z,4.60
2017-12-11T12:33:52.913Z,3.86
2017-12-11T12:34:52.905Z,4.10
2017-12-11T12:35:52.896Z,3.89
2017-12-11T12:36:52.891Z,3.83
2017-12-11T12:37:52.884Z,3.66
2017-12-11T12:38:52.878Z,3.17
2017-12-11T12:39:52.858Z,3.28
2017-12-11T12:40:52.861Z,4.18
2017-12-11T12:41:52.850Z,3.38
2017-12-11T12:42:52.839Z,3.41
2017-12-11T12:43:52.832Z,3.45
2017-12-11T12:44:52.832Z,4.86
2017-12-11T12:45:52.808Z,4.71
2017-12-11T12:46:52.794Z,4.21
2017-12-11T12:47:52.796Z,4.57
2017-12-11T12:48:52.791Z,3.82
2017-12-11T12:49:52.775Z,4.86
2017-12-11T12:50:52.770Z,4.64
2017-12-11T12:51:52.769Z,4.17
2017-12-11T12:52:52.761Z,4.30
2017-12-11T12:53:52.743Z,3.64
2017-12-11T12:54:52.765Z,3.32
2017-12-11T12:55:52.733Z,2.59
2017-12-11T12:56:52.717Z,2.25
2017-12-11T12:57:52.719Z,2.05
2017-12-11T12:58:52.708Z,2.74
2017-12-11T12:59:52.700Z,2.82
2017-12-11T13:00:52.678Z,2.15
2017-12-11T13:01:52.686Z,2.28
2017-12-11T13:02:52.680Z,2.52
2017-12-11T13:03:52.683Z,3.36